Time;durP1;ratioP1;P1;durP2;ratioP2;P2;SDS_P1;SDS_P2;PMS_P1;PMS_P2;Temp;Humidity;BMP_temperature;BMP_pressure;BME280_temperature;BME280_humidity;BME280_pressure;Samples;Min_cycle;Max_cycle;Signal;HPM_P1;HPM_P2
2021/01/01 00:01:14;;;;;;;89.95;78.57;;;;;;;;;;5035624;28;20204;-89
2021/01/01 00:03:40;;;;;;;103.90;86.68;;;;;;;;;;5037400;28;20217;-89
2021/01/01 00:06:10;;;;;;;55.42;49.70;;;;;;;;;;5037081;28;20186;-87
2021/01/01 00:08:37;;;;;;;59.00;53.15;;;;;;;;;;5037313;28;20232;-91
2021/01/01 00:11:03;;;;;;;59.45;53.63;;;;;;;;;;5037116;28;20244;-87
2021/01/01 00:13:30;;;;;;;65.82;59.03;;;;;;;;;;5036630;28;20196;-91
2021/01/01 00:15:57;;;;;;;73.63;62.42;;;;;;;;;;5036362;28;20667;-91
2021/01/01 00:18:25;;;;;;;64.35;57.50;;;;;;;;;;5037228;28;20212;-90
2021/01/01 00:20:52;;;;;;;68.72;61.45;;;;;;;;;;5036402;28;20214;-91
2021/01/01 00:23:19;;;;;;;72.95;65.18;;;;;;;;;;5037200;28;20202;-91
2021/01/01 00:25:46;;;;;;;72.43;60.50;;;;;;;;;;5036247;28;20595;-91
2021/01/01 00:28:13;;;;;;;77.75;69.10;;;;;;;;;;5040923;28;20193;-91
2021/01/01 00:30:40;;;;;;;83.07;73.88;;;;;;;;;;5038174;28;20229;-91
2021/01/01 00:33:07;;;;;;;97.85;83.68;;;;;;;;;;5037331;28;20197;-91
2021/01/01 00:35:35;;;;;;;102.97;86.40;;;;;;;;;;5037585;28;20205;-92
2021/01/01 00:38:02;;;;;;;105.97;88.13;;;;;;;;;;5037473;28;20244;-91
2021/01/01 00:40:29;;;;;;;113.03;90.55;;;;;;;;;;5035142;28;20205;-91
2021/01/01 00:42:56;;;;;;;100.20;86.50;;;;;;;;;;5038781;28;20206;-92
2021/01/01 00:45:23;;;;;;;99.95;82.47;;;;;;;;;;5038761;28;20248;-91
2021/01/01 00:47:50;;;;;;;98.32;82.25;;;;;;;;;;5037376;28;20229;-91
2021/01/01 00:50:17;;;;;;;94.63;80.82;;;;;;;;;;5036768;28;20234;-92
2021/01/01 00:52:45;;;;;;;86.03;76.95;;;;;;;;;;5035943;28;20206;-90
2021/01/01 00:55:12;;;;;;;70.55;63.22;;;;;;;;;;5039267;28;20201;-90
2021/01/01 00:57:39;;;;;;;70.55;62.95;;;;;;;;;;5035645;28;20190;-90
2021/01/01 01:00:07;;;;;;;72.88;64.82;;;;;;;;;;5036569;28;20189;-91
2021/01/01 01:02:34;;;;;;;70.78;63.45;;;;;;;;;;5038371;28;20194;-90
2021/01/01 01:05:01;;;;;;;71.97;64.43;;;;;;;;;;5040364;28;20185;-90
2021/01/01 01:07:28;;;;;;;68.40;61.00;;;;;;;;;;5040677;28;20605;-90
2021/01/01 01:09:56;;;;;;;69.53;62.08;;;;;;;;;;5041800;28;20696;-89
2021/01/01 01:12:23;;;;;;;67.30;60.33;;;;;;;;;;5038572;28;20205;-90
2021/01/01 01:14:50;;;;;;;68.43;61.53;;;;;;;;;;5041391;28;20198;-90
2021/01/01 01:17:17;;;;;;;69.35;61.03;;;;;;;;;;5042227;28;20197;-90
2021/01/01 01:19:44;;;;;;;66.75;59.85;;;;;;;;;;5042597;28;20193;-90
2021/01/01 01:22:12;;;;;;;69.50;62.38;;;;;;;;;;5043171;28;20263;-90
2021/01/01 01:24:38;;;;;;;74.22;62.60;;;;;;;;;;5039860;28;20223;-90
2021/01/01 01:27:06;;;;;;;65.63;58.92;;;;;;;;;;5039658;28;20205;-91
2021/01/01 01:29:33;;;;;;;66.05;58.80;;;;;;;;;;5041533;28;20236;-91
2021/01/01 01:32:00;;;;;;;64.05;57.05;;;;;;;;;;5037759;28;20201;-89
2021/01/01 01:34:27;;;;;;;60.78;54.65;;;;;;;;;;5037900;28;20217;-90
2021/01/01 01:36:55;;;;;;;59.95;53.67;;;;;;;;;;5041294;28;20223;-90
2021/01/01 01:39:21;;;;;;;67.55;58.55;;;;;;;;;;5040122;28;20247;-90
2021/01/01 01:41:48;;;;;;;66.10;59.35;;;;;;;;;;5036854;28;20213;-89
2021/01/01 01:44:16;;;;;;;64.38;57.67;;;;;;;;;;5038040;28;20205;-89
2021/01/01 01:46:44;;;;;;;64.53;57.72;;;;;;;;;;5038084;28;20213;-90
2021/01/01 01:49:15;;;;;;;64.07;57.03;;;;;;;;;;5038491;28;20311;-90
2021/01/01 01:51:44;;;;;;;64.93;58.15;;;;;;;;;;5036970;28;20251;-90
2021/01/01 01:54:11;;;;;;;66.68;59.55;;;;;;;;;;5038331;28;20198;-90
2021/01/01 01:56:38;;;;;;;70.57;62.80;;;;;;;;;;5035589;28;20264;-90
2021/01/01 01:59:05;;;;;;;65.65;58.40;;;;;;;;;;5035150;28;20224;-89
2021/01/01 02:01:33;;;;;;;67.30;59.85;;;;;;;;;;5035533;28;20192;-89
2021/01/01 02:04:00;;;;;;;65.40;58.05;;;;;;;;;;5034128;28;20288;-90
2021/01/01 02:06:27;;;;;;;62.55;56.00;;;;;;;;;;5037673;28;20210;-90
2021/01/01 02:08:55;;;;;;;64.10;57.50;;;;;;;;;;5036957;28;20249;-90
2021/01/01 02:11:22;;;;;;;60.45;54.15;;;;;;;;;;5037076;28;20578;-90
2021/01/01 02:13:50;;;;;;;63.00;56.47;;;;;;;;;;5035414;28;20220;-89
2021/01/01 02:16:18;;;;;;;68.43;61.05;;;;;;;;;;5035849;28;20189;-90
2021/01/01 02:18:46;;;;;;;65.50;58.50;;;;;;;;;;5035004;28;20639;-89
2021/01/01 02:21:14;;;;;;;74.10;64.45;;;;;;;;;;5035437;28;20212;-90
2021/01/01 02:23:42;;;;;;;75.15;64.20;;;;;;;;;;5037209;28;20193;-90
2021/01/01 02:26:09;;;;;;;70.38;60.03;;;;;;;;;;5035750;28;20202;-89
2021/01/01 02:28:36;;;;;;;69.82;60.58;;;;;;;;;;5035062;28;20221;-90
2021/01/01 02:31:03;;;;;;;81.43;67.05;;;;;;;;;;5037664;28;20579;-90
2021/01/01 02:33:29;;;;;;;72.05;60.88;;;;;;;;;;5035162;28;20196;-89
2021/01/01 02:35:56;;;;;;;59.75;53.65;;;;;;;;;;5037812;28;20197;-90
2021/01/01 02:38:24;;;;;;;63.78;56.85;;;;;;;;;;5036759;28;20542;-89
2021/01/01 02:40:52;;;;;;;61.58;54.97;;;;;;;;;;5037242;28;20210;-89
2021/01/01 02:43:19;;;;;;;60.15;53.65;;;;;;;;;;5037166;28;20665;-90
2021/01/01 02:45:46;;;;;;;61.22;54.63;;;;;;;;;;5035891;28;20213;-88
2021/01/01 02:48:14;;;;;;;63.90;57.10;;;;;;;;;;5036821;28;20199;-90
2021/01/01 02:50:42;;;;;;;63.17;56.58;;;;;;;;;;5034291;28;20274;-90
2021/01/01 02:53:08;;;;;;;60.40;54.30;;;;;;;;;;5037256;28;20255;-90
2021/01/01 02:55:36;;;;;;;59.53;53.25;;;;;;;;;;5036628;28;20229;-90
2021/01/01 02:58:04;;;;;;;60.08;53.70;;;;;;;;;;5036468;28;20548;-88
2021/01/01 03:00:32;;;;;;;64.78;57.78;;;;;;;;;;5035881;28;20849;-90
2021/01/01 03:02:59;;;;;;;58.15;52.22;;;;;;;;;;5037380;28;20201;-89
2021/01/01 03:05:26;;;;;;;62.38;56.15;;;;;;;;;;5037425;28;20189;-89
2021/01/01 03:07:53;;;;;;;63.42;56.88;;;;;;;;;;5037198;28;20252;-90
2021/01/01 03:10:20;;;;;;;64.95;56.58;;;;;;;;;;5037862;28;20225;-91
2021/01/01 03:12:47;;;;;;;65.90;59.10;;;;;;;;;;5042359;28;20213;-89
2021/01/01 03:15:16;;;;;;;65.53;58.53;;;;;;;;;;5041866;28;20202;-90
2021/01/01 03:17:43;;;;;;;58.95;52.72;;;;;;;;;;5041256;28;20198;-89
2021/01/01 03:20:10;;;;;;;65.10;58.15;;;;;;;;;;5038874;28;20190;-89
2021/01/01 03:22:37;;;;;;;64.85;56.53;;;;;;;;;;5039771;28;20205;-90
2021/01/01 03:25:04;;;;;;;59.97;53.78;;;;;;;;;;5038838;28;20291;-90
2021/01/01 03:27:31;;;;;;;59.80;53.53;;;;;;;;;;5038849;28;20209;-90
2021/01/01 03:29:58;;;;;;;60.53;54.28;;;;;;;;;;5038907;28;20607;-91
2021/01/01 03:32:26;;;;;;;62.72;56.08;;;;;;;;;;5038557;28;20199;-90
2021/01/01 03:34:53;;;;;;;60.85;54.33;;;;;;;;;;5037016;28;20185;-89
2021/01/01 03:37:20;;;;;;;60.67;54.17;;;;;;;;;;5037384;28;20220;-90
2021/01/01 03:39:47;;;;;;;59.35;53.03;;;;;;;;;;5037081;28;20193;-88
2021/01/01 03:42:14;;;;;;;56.85;50.85;;;;;;;;;;5036600;28;20236;-89
2021/01/01 03:44:41;;;;;;;57.75;49.10;;;;;;;;;;5036551;28;20198;-90
2021/01/01 03:47:08;;;;;;;54.50;48.72;;;;;;;;;;5035244;28;20562;-89
2021/01/01 03:49:36;;;;;;;56.15;50.05;;;;;;;;;;5036768;28;20670;-90
2021/01/01 03:52:03;;;;;;;56.42;50.33;;;;;;;;;;5036582;28;20234;-89
2021/01/01 03:54:30;;;;;;;60.15;53.35;;;;;;;;;;5036939;28;20193;-89
2021/01/01 03:56:56;;;;;;;56.60;50.65;;;;;;;;;;5035216;28;20206;-90
2021/01/01 03:59:23;;;;;;;59.67;53.47;;;;;;;;;;5036287;28;20185;-90
2021/01/01 04:01:50;;;;;;;58.40;52.30;;;;;;;;;;5036746;28;20190;-90
2021/01/01 04:04:17;;;;;;;57.90;51.97;;;;;;;;;;5036891;28;20539;-90
2021/01/01 04:06:45;;;;;;;61.17;52.65;;;;;;;;;;5036143;28;20192;-90
2021/01/01 04:09:12;;;;;;;59.08;52.88;;;;;;;;;;5035030;28;20566;-91
2021/01/01 04:11:39;;;;;;;64.90;52.95;;;;;;;;;;5035977;28;20217;-90
2021/01/01 04:14:07;;;;;;;55.15;49.15;;;;;;;;;;5036386;28;20190;-91
2021/01/01 04:16:34;;;;;;;56.13;50.22;;;;;;;;;;5035939;28;20195;-90
2021/01/01 04:19:01;;;;;;;56.78;51.13;;;;;;;;;;5035879;28;20194;-90
2021/01/01 04:21:27;;;;;;;58.97;53.05;;;;;;;;;;5036029;28;20563;-90
2021/01/01 04:23:56;;;;;;;57.80;51.83;;;;;;;;;;5034636;28;20259;-91
2021/01/01 04:26:26;;;;;;;58.17;51.92;;;;;;;;;;5035709;28;20210;-90
2021/01/01 04:28:53;;;;;;;57.50;51.25;;;;;;;;;;5034733;28;20223;-90
2021/01/01 04:31:19;;;;;;;56.88;51.08;;;;;;;;;;5035532;28;20223;-90
2021/01/01 04:33:46;;;;;;;58.22;51.88;;;;;;;;;;5035375;28;20206;-90
2021/01/01 04:36:13;;;;;;;61.30;52.72;;;;;;;;;;5035467;28;20189;-90
2021/01/01 04:38:40;;;;;;;59.35;52.15;;;;;;;;;;5035737;28;20200;-90
2021/01/01 04:41:09;;;;;;;61.03;54.35;;;;;;;;;;5035688;28;20601;-89
2021/01/01 04:43:36;;;;;;;57.83;51.72;;;;;;;;;;5035466;28;20197;-91
2021/01/01 04:46:03;;;;;;;58.60;51.75;;;;;;;;;;5035766;28;20197;-90
2021/01/01 04:48:31;;;;;;;56.83;50.92;;;;;;;;;;5035626;28;20228;-90
2021/01/01 04:50:57;;;;;;;58.00;52.15;;;;;;;;;;5033921;28;20273;-90
2021/01/01 04:53:25;;;;;;;56.63;50.75;;;;;;;;;;5035478;28;20635;-90
2021/01/01 04:55:54;;;;;;;57.38;50.70;;;;;;;;;;5034176;28;20655;-90
2021/01/01 04:58:22;;;;;;;57.17;50.90;;;;;;;;;;5035027;28;20663;-90
2021/01/01 05:00:48;;;;;;;58.30;52.00;;;;;;;;;;5035305;28;20194;-90
2021/01/01 05:03:16;;;;;;;59.53;53.17;;;;;;;;;;5035188;28;20264;-90
2021/01/01 05:05:49;;;;;;;59.88;50.85;;;;;;;;;;5034942;28;20190;-90
2021/01/01 05:08:17;;;;;;;58.70;52.33;;;;;;;;;;5034767;28;20189;-90
2021/01/01 05:10:43;;;;;;;55.95;50.28;;;;;;;;;;5035164;28;20222;-90
2021/01/01 05:13:11;;;;;;;56.95;50.85;;;;;;;;;;5033803;28;20201;-89
2021/01/01 05:15:39;;;;;;;56.05;49.97;;;;;;;;;;5035305;28;20194;-90
2021/01/01 05:18:22;;;;;;;55.08;49.28;;;;;;;;;;5035076;28;20194;-90
2021/01/01 05:20:49;;;;;;;58.08;48.80;;;;;;;;;;5033390;28;20208;-90
2021/01/01 05:23:18;;;;;;;54.78;48.97;;;;;;;;;;5034933;28;20241;-90
2021/01/01 05:25:46;;;;;;;56.38;50.33;;;;;;;;;;5034603;28;20214;-91
2021/01/01 05:28:13;;;;;;;54.60;48.88;;;;;;;;;;5034956;28;20276;-90
2021/01/01 05:30:41;;;;;;;56.90;50.20;;;;;;;;;;5034394;28;20245;-90
2021/01/01 05:33:09;;;;;;;57.65;51.53;;;;;;;;;;5034084;28;20214;-90
2021/01/01 05:35:36;;;;;;;55.70;50.08;;;;;;;;;;5034780;28;20196;-91
2021/01/01 05:38:16;;;;;;;53.10;47.33;;;;;;;;;;5034623;28;20190;-90
2021/01/01 05:40:43;;;;;;;54.42;46.78;;;;;;;;;;5034679;28;20274;-90
2021/01/01 05:43:19;;;;;;;54.53;47.67;;;;;;;;;;5034241;28;20200;-90
2021/01/01 05:45:47;;;;;;;50.08;43.83;;;;;;;;;;5034302;28;20201;-90
2021/01/01 05:48:16;;;;;;;50.33;43.95;;;;;;;;;;5033452;28;20236;-90
2021/01/01 05:50:43;;;;;;;51.25;45.90;;;;;;;;;;5033723;28;20335;-90
2021/01/01 05:53:11;;;;;;;50.67;44.72;;;;;;;;;;5034172;28;20197;-90
2021/01/01 05:55:38;;;;;;;51.20;43.85;;;;;;;;;;5034436;28;20196;-90
2021/01/01 05:58:05;;;;;;;52.38;44.88;;;;;;;;;;5034489;28;20768;-91
2021/01/01 06:00:32;;;;;;;57.08;46.05;;;;;;;;;;5034316;28;20256;-91
2021/01/01 06:03:02;;;;;;;81.05;46.47;;;;;;;;;;5034230;28;20193;-90
2021/01/01 06:05:29;;;;;;;52.80;45.75;;;;;;;;;;5034162;28;20702;-90
2021/01/01 06:07:58;;;;;;;67.00;45.03;;;;;;;;;;5034325;28;20267;-89
2021/01/01 06:10:27;;;;;;;87.28;46.78;;;;;;;;;;5032922;28;20575;-89
2021/01/01 06:12:57;;;;;;;79.43;43.08;;;;;;;;;;5033976;28;20228;-89
2021/01/01 06:15:24;;;;;;;74.18;46.00;;;;;;;;;;5034032;28;20201;-91
2021/01/01 06:17:52;;;;;;;67.63;42.88;;;;;;;;;;5034198;28;20199;-90
2021/01/01 06:20:21;;;;;;;139.13;47.67;;;;;;;;;;5034027;28;20193;-90
2021/01/01 06:23:05;;;;;;;80.88;43.63;;;;;;;;;;5034205;28;20185;-89
2021/01/01 06:25:34;;;;;;;63.33;43.55;;;;;;;;;;5034059;28;20220;-90
2021/01/01 06:28:01;;;;;;;100.10;46.78;;;;;;;;;;5034104;28;20189;-90
2021/01/01 06:30:28;;;;;;;150.98;46.95;;;;;;;;;;5034074;28;20576;-90
2021/01/01 06:32:55;;;;;;;93.05;44.30;;;;;;;;;;5033951;28;20705;-91
2021/01/01 06:35:24;;;;;;;70.65;41.78;;;;;;;;;;5033796;28;20194;-90
2021/01/01 06:37:52;;;;;;;52.30;42.63;;;;;;;;;;5033861;28;20636;-91
2021/01/01 06:40:35;;;;;;;127.32;45.88;;;;;;;;;;5033777;28;20200;-90
2021/01/01 06:43:03;;;;;;;84.53;43.55;;;;;;;;;;5033920;28;20244;-91
2021/01/01 06:45:39;;;;;;;138.57;47.13;;;;;;;;;;5035783;28;20200;-90
2021/01/01 06:48:07;;;;;;;80.95;43.30;;;;;;;;;;5037549;28;20208;-90
2021/01/01 06:50:35;;;;;;;93.35;45.40;;;;;;;;;;5037300;28;20241;-91
2021/01/01 06:53:03;;;;;;;96.53;44.22;;;;;;;;;;5037659;28;20558;-90
2021/01/01 06:55:33;;;;;;;91.38;43.58;;;;;;;;;;5037881;28;20190;-90
2021/01/01 06:58:00;;;;;;;131.88;45.22;;;;;;;;;;5037708;28;20523;-90
2021/01/01 07:00:46;;;;;;;125.70;43.70;;;;;;;;;;5037564;28;20227;-89
2021/01/01 07:03:27;;;;;;;61.63;40.58;;;;;;;;;;5037592;28;20196;-90
2021/01/01 07:05:55;;;;;;;95.53;44.92;;;;;;;;;;5036491;28;20264;-90
2021/01/01 07:08:37;;;;;;;135.75;44.50;;;;;;;;;;5037619;28;20657;-90
2021/01/01 07:11:04;;;;;;;132.30;43.17;;;;;;;;;;5035648;28;20259;-91
2021/01/01 07:13:40;;;;;;;176.30;46.50;;;;;;;;;;5037669;28;20193;-90
2021/01/01 07:16:07;;;;;;;79.40;43.67;;;;;;;;;;5036001;28;20566;-90
2021/01/01 07:18:34;;;;;;;70.85;41.85;;;;;;;;;;5037283;28;20692;-90
2021/01/01 07:21:02;;;;;;;119.07;43.53;;;;;;;;;;5036836;28;20197;-89
2021/01/01 07:23:29;;;;;;;74.45;42.63;;;;;;;;;;5037271;28;20185;-90
2021/01/01 07:25:56;;;;;;;66.50;41.63;;;;;;;;;;5036761;28;20205;-90
2021/01/01 07:28:23;;;;;;;121.72;43.85;;;;;;;;;;5036498;28;20213;-89
2021/01/01 07:30:50;;;;;;;72.85;41.90;;;;;;;;;;5036587;28;20581;-90
2021/01/01 07:33:21;;;;;;;110.80;44.45;;;;;;;;;;5037022;28;20185;-91
2021/01/01 07:35:50;;;;;;;125.88;45.70;;;;;;;;;;5035785;28;20542;-90
2021/01/01 07:38:19;;;;;;;90.07;42.03;;;;;;;;;;5035724;28;20241;-90
2021/01/01 07:40:46;;;;;;;113.60;42.95;;;;;;;;;;5036739;28;20193;-90
2021/01/01 07:43:13;;;;;;;63.05;41.97;;;;;;;;;;5036845;28;20201;-90
2021/01/01 07:45:40;;;;;;;71.05;43.38;;;;;;;;;;5036799;28;20197;-90
2021/01/01 07:48:08;;;;;;;75.30;43.47;;;;;;;;;;5036371;28;20194;-90
2021/01/01 07:50:35;;;;;;;85.68;45.05;;;;;;;;;;5035918;28;20250;-82
2021/01/01 07:53:03;;;;;;;64.13;42.83;;;;;;;;;;5036413;28;20198;-82
2021/01/01 07:55:31;;;;;;;76.47;44.17;;;;;;;;;;5035841;28;20211;-90
2021/01/01 07:58:00;;;;;;;65.90;45.65;;;;;;;;;;5036375;28;20184;-90
2021/01/01 08:00:29;;;;;;;62.40;44.35;;;;;;;;;;5036335;28;20196;-91
2021/01/01 08:02:56;;;;;;;70.00;45.00;;;;;;;;;;5036154;28;20194;-81
2021/01/01 08:05:24;;;;;;;71.05;46.08;;;;;;;;;;5036116;28;20193;-82
2021/01/01 08:07:50;;;;;;;68.30;46.15;;;;;;;;;;5035803;28;20320;-82
2021/01/01 08:10:31;;;;;;;62.78;47.28;;;;;;;;;;5035493;28;20196;-81
2021/01/01 08:12:59;;;;;;;57.78;46.45;;;;;;;;;;5035772;28;20225;-82
2021/01/01 08:15:29;;;;;;;56.58;46.67;;;;;;;;;;5035706;28;20232;-82
2021/01/01 08:17:56;;;;;;;59.72;44.63;;;;;;;;;;5035654;28;20246;-82
2021/01/01 08:20:22;;;;;;;65.18;47.25;;;;;;;;;;5035654;28;20206;-82
2021/01/01 08:22:50;;;;;;;58.85;47.13;;;;;;;;;;5035438;28;20588;-82
2021/01/01 08:25:17;;;;;;;58.53;46.67;;;;;;;;;;5035698;28;20205;-82
2021/01/01 08:27:45;;;;;;;69.97;50.67;;;;;;;;;;5035340;28;20193;-82
2021/01/01 08:30:14;;;;;;;64.82;47.42;;;;;;;;;;5035513;28;20189;-82
2021/01/01 08:32:42;;;;;;;70.72;50.45;;;;;;;;;;5035719;28;20197;-82
2021/01/01 08:35:10;;;;;;;58.75;47.40;;;;;;;;;;5034391;28;20189;-82
2021/01/01 08:37:37;;;;;;;63.70;49.78;;;;;;;;;;5035285;28;20549;-81
2021/01/01 08:40:05;;;;;;;61.90;49.33;;;;;;;;;;5034941;28;20233;-82
2021/01/01 08:42:34;;;;;;;71.82;51.05;;;;;;;;;;5035187;28;20199;-81
2021/01/01 08:45:01;;;;;;;64.15;49.85;;;;;;;;;;5034936;28;20190;-81
2021/01/01 08:47:39;;;;;;;62.45;48.97;;;;;;;;;;5035234;28;20197;-80
2021/01/01 08:50:18;;;;;;;63.97;49.60;;;;;;;;;;5034601;28;20283;-80
2021/01/01 08:52:46;;;;;;;64.57;48.85;;;;;;;;;;5035036;28;20630;-81
2021/01/01 08:55:13;;;;;;;63.33;51.13;;;;;;;;;;5034639;28;20212;-80
2021/01/01 08:57:40;;;;;;;58.65;48.85;;;;;;;;;;5034591;28;20190;-81
2021/01/01 09:00:08;;;;;;;72.50;51.00;;;;;;;;;;5034871;28;20193;-82
2021/01/01 09:02:35;;;;;;;65.28;50.33;;;;;;;;;;5034582;28;20192;-81
2021/01/01 09:05:05;;;;;;;63.00;50.15;;;;;;;;;;5034776;28;20268;-82
2021/01/01 09:07:32;;;;;;;58.03;48.53;;;;;;;;;;5033933;28;20655;-82
2021/01/01 09:10:14;;;;;;;64.47;49.50;;;;;;;;;;5034357;28;20190;-81
2021/01/01 09:12:41;;;;;;;63.70;49.50;;;;;;;;;;5033351;28;20672;-82
2021/01/01 09:15:08;;;;;;;59.78;49.20;;;;;;;;;;5034896;28;20188;-81
2021/01/01 09:17:36;;;;;;;69.90;51.90;;;;;;;;;;5035125;28;20247;-88
2021/01/01 09:20:04;;;;;;;66.32;50.30;;;;;;;;;;5035135;28;20189;-86
2021/01/01 09:22:33;;;;;;;72.80;53.70;;;;;;;;;;5033907;28;20718;-87
2021/01/01 09:25:19;;;;;;;67.55;50.42;;;;;;;;;;5035295;28;20194;-87
2021/01/01 09:27:47;;;;;;;63.42;48.95;;;;;;;;;;5034926;28;20189;-83
2021/01/01 09:30:16;;;;;;;58.72;47.42;;;;;;;;;;5032963;28;20291;-79
2021/01/01 09:32:48;;;;;;;61.17;48.75;;;;;;;;;;5034131;28;20609;-80
2021/01/01 09:35:16;;;;;;;60.03;48.85;;;;;;;;;;5034015;28;20315;-79
2021/01/01 09:37:46;;;;;;;61.70;46.45;;;;;;;;;;5034009;28;20591;-79
2021/01/01 09:40:14;;;;;;;58.65;46.70;;;;;;;;;;5034197;28;20379;-79
2021/01/01 09:42:41;;;;;;;62.88;47.85;;;;;;;;;;5033923;28;20193;-80
2021/01/01 09:45:09;;;;;;;57.03;49.85;;;;;;;;;;5034301;28;20201;-80
2021/01/01 09:47:36;;;;;;;58.88;49.45;;;;;;;;;;5033847;28;20643;-79
2021/01/01 09:50:04;;;;;;;57.95;45.85;;;;;;;;;;5033375;28;20224;-79
2021/01/01 09:52:32;;;;;;;54.38;45.80;;;;;;;;;;5032868;28;20693;-78
2021/01/01 09:54:59;;;;;;;53.92;42.45;;;;;;;;;;5033761;28;20195;-78
2021/01/01 09:57:26;;;;;;;51.92;44.05;;;;;;;;;;5033687;28;20201;-78
2021/01/01 09:59:53;;;;;;;47.42;41.10;;;;;;;;;;5033753;28;20193;-78
2021/01/01 10:02:21;;;;;;;48.65;43.35;;;;;;;;;;5033593;28;20193;-78
2021/01/01 10:04:48;;;;;;;53.40;46.45;;;;;;;;;;5033688;28;20198;-78
2021/01/01 10:07:15;;;;;;;56.28;45.78;;;;;;;;;;5033918;28;20193;-79
2021/01/01 10:09:43;;;;;;;56.58;46.95;;;;;;;;;;5033519;28;20197;-78
2021/01/01 10:12:12;;;;;;;54.05;46.28;;;;;;;;;;5032523;28;20230;-78
2021/01/01 10:14:39;;;;;;;57.97;46.30;;;;;;;;;;5033456;28;20544;-79
2021/01/01 10:17:06;;;;;;;62.95;50.15;;;;;;;;;;5033625;28;20662;-79
2021/01/01 10:19:33;;;;;;;54.38;48.08;;;;;;;;;;5035628;28;20193;-83
2021/01/01 10:22:00;;;;;;;49.63;44.25;;;;;;;;;;5037630;28;20194;-79
2021/01/01 10:24:26;;;;;;;52.55;45.67;;;;;;;;;;5037703;28;20224;-80
2021/01/01 10:26:54;;;;;;;48.10;41.80;;;;;;;;;;5037458;28;20192;-80
2021/01/01 10:29:22;;;;;;;47.15;41.30;;;;;;;;;;5037768;28;20208;-78
2021/01/01 10:31:49;;;;;;;49.40;44.03;;;;;;;;;;5037205;28;20232;-80
2021/01/01 10:34:16;;;;;;;47.50;41.42;;;;;;;;;;5037319;28;20196;-80
2021/01/01 10:36:43;;;;;;;46.67;41.58;;;;;;;;;;5037434;28;20205;-80
2021/01/01 10:39:10;;;;;;;45.50;39.70;;;;;;;;;;5038074;28;20196;-80
2021/01/01 10:41:37;;;;;;;47.72;42.53;;;;;;;;;;5037125;28;20193;-78
2021/01/01 10:44:05;;;;;;;50.92;44.22;;;;;;;;;;5037285;28;20197;-78
2021/01/01 10:46:32;;;;;;;48.38;41.38;;;;;;;;;;5037087;28;20635;-78
2021/01/01 10:49:00;;;;;;;44.78;40.08;;;;;;;;;;5035792;28;20229;-77
2021/01/01 10:51:27;;;;;;;48.92;41.80;;;;;;;;;;5037028;28;20283;-80
2021/01/01 10:53:54;;;;;;;44.92;40.05;;;;;;;;;;5036938;28;20705;-83
2021/01/01 10:56:25;;;;;;;50.60;42.88;;;;;;;;;;5034407;28;20198;-82
2021/01/01 10:58:52;;;;;;;50.33;41.65;;;;;;;;;;5037565;28;20201;-82
2021/01/01 11:01:20;;;;;;;47.80;42.58;;;;;;;;;;5037607;28;20189;-83
2021/01/01 11:03:47;;;;;;;50.10;41.70;;;;;;;;;;5036369;28;20208;-81
2021/01/01 11:06:14;;;;;;;49.80;44.10;;;;;;;;;;5037133;28;20200;-79
2021/01/01 11:08:41;;;;;;;48.47;42.38;;;;;;;;;;5037190;28;20666;-83
2021/01/01 11:11:09;;;;;;;49.28;42.47;;;;;;;;;;5036913;28;20240;-83
2021/01/01 11:13:39;;;;;;;45.08;39.90;;;;;;;;;;5036051;28;20193;-80
2021/01/01 12:23:05;;;;;;;49.92;44.53;;;;;;;;;;5145995;27;20595;-85
2021/01/01 12:25:32;;;;;;;61.42;51.78;;;;;;;;;;5112117;28;20188;-85
2021/01/01 12:27:59;;;;;;;49.05;42.55;;;;;;;;;;5112187;28;20202;-86
2021/01/01 12:30:27;;;;;;;49.60;42.70;;;;;;;;;;5112157;28;20647;-85
2021/01/01 12:32:54;;;;;;;46.88;41.83;;;;;;;;;;5111132;28;20211;-86
2021/01/01 12:35:21;;;;;;;48.88;42.72;;;;;;;;;;5111587;28;20282;-83
2021/01/01 12:37:58;;;;;;;51.13;45.55;;;;;;;;;;5110514;28;20198;-79
2021/01/01 12:40:26;;;;;;;47.78;41.20;;;;;;;;;;5111697;28;20186;-83
2021/01/01 12:42:53;;;;;;;48.25;43.22;;;;;;;;;;5111244;28;20230;-82
2021/01/01 12:45:20;;;;;;;48.47;42.15;;;;;;;;;;5111790;28;20183;-85
2021/01/01 12:47:47;;;;;;;50.80;45.38;;;;;;;;;;5112043;28;20191;-85
2021/01/01 12:50:15;;;;;;;50.78;43.65;;;;;;;;;;5111564;28;20219;-85
2021/01/01 12:52:50;;;;;;;49.17;43.83;;;;;;;;;;5112688;28;20527;-85
2021/01/01 12:55:17;;;;;;;48.88;42.58;;;;;;;;;;5111809;28;20210;-85
2021/01/01 12:57:45;;;;;;;47.70;42.38;;;;;;;;;;5111711;28;20198;-83
2021/01/01 13:00:12;;;;;;;52.35;44.10;;;;;;;;;;5111157;28;20191;-82
2021/01/01 13:02:39;;;;;;;52.90;45.55;;;;;;;;;;5110969;28;20223;-81
2021/01/01 13:05:07;;;;;;;56.05;44.50;;;;;;;;;;5111043;28;20244;-81
2021/01/01 13:07:34;;;;;;;61.70;48.55;;;;;;;;;;5110958;28;20210;-84
2021/01/01 13:10:01;;;;;;;57.83;47.38;;;;;;;;;;5112268;28;20203;-85
2021/01/01 13:12:28;;;;;;;57.67;48.13;;;;;;;;;;5110485;28;20191;-86
2021/01/01 13:14:56;;;;;;;57.15;45.38;;;;;;;;;;5111053;28;20206;-87
2021/01/01 13:17:22;;;;;;;57.30;47.38;;;;;;;;;;5111066;28;20190;-86
2021/01/01 13:19:49;;;;;;;57.45;48.40;;;;;;;;;;5111278;27;20266;-85
2021/01/01 13:22:16;;;;;;;59.13;44.83;;;;;;;;;;5110678;28;20235;-84
2021/01/01 13:24:43;;;;;;;61.38;46.72;;;;;;;;;;5109854;28;20648;-82
2021/01/01 13:27:10;;;;;;;57.25;47.95;;;;;;;;;;5111078;28;20183;-82
2021/01/01 13:29:37;;;;;;;67.28;50.00;;;;;;;;;;5110438;28;20195;-81
2021/01/01 13:32:05;;;;;;;64.60;51.03;;;;;;;;;;5110154;28;20652;-83
2021/01/01 13:34:32;;;;;;;62.63;50.00;;;;;;;;;;5096676;28;20192;-84
2021/01/01 13:36:59;;;;;;;68.43;50.70;;;;;;;;;;5097087;28;20537;-81
2021/01/01 13:39:26;;;;;;;64.43;50.50;;;;;;;;;;5097054;28;20545;-83
2021/01/01 13:41:54;;;;;;;65.97;49.83;;;;;;;;;;5096777;28;20264;-80
2021/01/01 13:44:21;;;;;;;68.40;50.40;;;;;;;;;;5096431;28;20187;-80
2021/01/01 13:46:48;;;;;;;66.50;48.45;;;;;;;;;;5095324;28;20211;-80
2021/01/01 13:49:16;;;;;;;72.75;50.20;;;;;;;;;;5096211;28;20218;-80
2021/01/01 13:51:46;;;;;;;65.47;48.25;;;;;;;;;;5096423;28;20199;-80
2021/01/01 13:54:13;;;;;;;63.63;48.40;;;;;;;;;;5096425;28;20191;-80
2021/01/01 13:56:40;;;;;;;71.90;50.17;;;;;;;;;;5096486;28;20188;-80
2021/01/01 13:59:07;;;;;;;67.45;50.03;;;;;;;;;;5096447;28;20214;-81
2021/01/01 14:01:34;;;;;;;74.38;50.63;;;;;;;;;;5096349;28;20219;-81
2021/01/01 14:04:01;;;;;;;67.68;50.80;;;;;;;;;;5096363;28;20222;-81
2021/01/01 14:06:32;;;;;;;72.57;52.50;;;;;;;;;;5095744;28;20666;-80
2021/01/01 14:08:59;;;;;;;70.05;53.88;;;;;;;;;;5095799;28;20250;-80
2021/01/01 14:11:26;;;;;;;71.93;55.50;;;;;;;;;;5095781;28;20192;-80
2021/01/01 14:13:53;;;;;;;71.70;53.25;;;;;;;;;;5096207;28;20232;-80
2021/01/01 14:16:20;;;;;;;68.05;54.80;;;;;;;;;;5095873;28;20588;-80
2021/01/01 14:18:48;;;;;;;75.30;54.15;;;;;;;;;;5095773;28;20189;-81
2021/01/01 14:21:15;;;;;;;67.40;56.17;;;;;;;;;;5085969;28;20229;-80
2021/01/01 14:23:43;;;;;;;67.28;52.83;;;;;;;;;;5083116;28;20264;-80
2021/01/01 14:26:10;;;;;;;72.20;56.13;;;;;;;;;;5083378;28;20199;-81
2021/01/01 14:28:38;;;;;;;73.97;58.35;;;;;;;;;;5075238;28;20307;-80
2021/01/01 14:31:06;;;;;;;71.90;56.35;;;;;;;;;;5074050;28;20193;-80
2021/01/01 14:33:33;;;;;;;70.18;54.90;;;;;;;;;;5074039;28;20200;-80
2021/01/01 14:35:59;;;;;;;66.90;53.00;;;;;;;;;;5075091;28;20200;-81
2021/01/01 14:38:26;;;;;;;70.88;55.05;;;;;;;;;;5074914;28;20188;-80
2021/01/01 14:40:54;;;;;;;69.57;56.40;;;;;;;;;;5075168;28;20204;-81
2021/01/01 14:43:21;;;;;;;65.10;53.50;;;;;;;;;;5075222;28;20214;-82
2021/01/01 14:45:48;;;;;;;74.72;54.53;;;;;;;;;;5074359;28;20195;-81
2021/01/01 14:48:15;;;;;;;67.60;51.85;;;;;;;;;;5075034;28;20208;-82
2021/01/01 14:50:42;;;;;;;66.80;53.90;;;;;;;;;;5073781;28;20208;-81
2021/01/01 14:53:09;;;;;;;66.07;54.88;;;;;;;;;;5057714;28;20292;-81
2021/01/01 14:55:36;;;;;;;70.38;56.10;;;;;;;;;;5075179;28;20216;-82
2021/01/01 14:58:04;;;;;;;72.57;54.95;;;;;;;;;;5074847;28;20195;-81
2021/01/01 15:00:31;;;;;;;65.88;52.75;;;;;;;;;;5074795;28;20197;-83
2021/01/01 15:02:58;;;;;;;69.55;54.35;;;;;;;;;;5075072;28;20237;-82
2021/01/01 15:05:25;;;;;;;65.50;52.55;;;;;;;;;;5074722;28;20190;-80
2021/01/01 15:07:52;;;;;;;70.88;52.58;;;;;;;;;;5074514;28;20225;-81
2021/01/01 15:10:18;;;;;;;61.63;51.47;;;;;;;;;;5074393;28;20661;-80
2021/01/01 15:12:45;;;;;;;65.47;51.50;;;;;;;;;;5073523;28;20204;-82
2021/01/01 15:15:14;;;;;;;60.22;49.90;;;;;;;;;;5074908;28;20189;-83
2021/01/01 15:17:41;;;;;;;59.53;49.97;;;;;;;;;;5074716;28;20247;-88
2021/01/01 15:20:09;;;;;;;56.00;49.70;;;;;;;;;;5075709;28;20193;-83
2021/01/01 15:22:36;;;;;;;60.83;50.60;;;;;;;;;;5074582;28;20245;-84
2021/01/01 15:25:03;;;;;;;61.88;51.72;;;;;;;;;;5074908;28;20193;-84
2021/01/01 15:27:30;;;;;;;59.85;51.08;;;;;;;;;;5074853;28;20649;-83